sensor_id;sensor_type;location;lat;lon;timestamp;P1;durP1;ratioP1;P2;durP2;ratioP2
12177;SDS011;6152;48.728;9.256;2024-03-23T00:54:14;2.28;;;1.95;;
12177;SDS011;6152;48.728;9.256;2024-03-23T00:56:40;2.47;;;2.08;;
12177;SDS011;6152;48.728;9.256;2024-03-23T00:59:06;2.63;;;1.92;;
12177;SDS011;6152;48.728;9.256;2024-03-23T01:01:32;3.10;;;1.60;;
12177;SDS011;6152;48.728;9.256;2024-03-23T01:03:58;3.90;;;2.20;;
12177;SDS011;6152;48.728;9.256;2024-03-23T01:06:24;2.22;;;1.77;;
12177;SDS011;6152;48.728;9.256;2024-03-23T01:08:50;3.10;;;1.63;;
12177;SDS011;6152;48.728;9.256;2024-03-23T01:11:17;1.67;;;1.58;;
12177;SDS011;6152;48.728;9.256;2024-03-23T01:13:43;4.13;;;1.65;;
12177;SDS011;6152;48.728;9.256;2024-03-23T01:16:09;2.33;;;2.10;;
12177;SDS011;6152;48.728;9.256;2024-03-23T01:18:36;1.90;;;1.80;;
12177;SDS011;6152;48.728;9.256;2024-03-23T01:21:02;1.60;;;1.50;;
12177;SDS011;6152;48.728;9.256;2024-03-23T01:23:28;2.08;;;1.88;;
12177;SDS011;6152;48.728;9.256;2024-03-23T01:25:54;2.42;;;1.50;;
12177;SDS011;6152;48.728;9.256;2024-03-23T01:28:21;1.77;;;1.63;;
12177;SDS011;6152;48.728;9.256;2024-03-23T01:30:48;2.97;;;1.52;;
12177;SDS011;6152;48.728;9.256;2024-03-23T01:33:15;1.88;;;1.45;;
12177;SDS011;6152;48.728;9.256;2024-03-23T01:35:41;4.00;;;2.33;;
12177;SDS011;6152;48.728;9.256;2024-03-23T01:38:07;4.38;;;1.50;;
12177;SDS011;6152;48.728;9.256;2024-03-23T01:40:33;2.80;;;1.50;;
12177;SDS011;6152;48.728;9.256;2024-03-23T01:43:06;2.55;;;1.40;;
12177;SDS011;6152;48.728;9.256;2024-03-23T01:45:33;2.42;;;1.40;;
12177;SDS011;6152;48.728;9.256;2024-03-23T01:48:00;1.20;;;1.15;;
12177;SDS011;6152;48.728;9.256;2024-03-23T01:50:27;1.40;;;1.30;;
12177;SDS011;6152;48.728;9.256;2024-03-23T01:52:55;1.50;;;1.40;;
12177;SDS011;6152;48.728;9.256;2024-03-23T01:55:22;2.38;;;1.35;;
12177;SDS011;6152;48.728;9.256;2024-03-23T01:57:48;1.60;;;1.50;;
12177;SDS011;6152;48.728;9.256;2024-03-23T02:00:15;2.75;;;1.60;;
12177;SDS011;6152;48.728;9.256;2024-03-23T02:02:44;1.33;;;1.23;;
12177;SDS011;6152;48.728;9.256;2024-03-23T02:05:11;1.98;;;1.33;;
12177;SDS011;6152;48.728;9.256;2024-03-23T02:07:38;2.70;;;1.27;;
12177;SDS011;6152;48.728;9.256;2024-03-23T02:10:06;3.30;;;1.15;;
12177;SDS011;6152;48.728;9.256;2024-03-23T02:12:33;2.35;;;1.42;;
12177;SDS011;6152;48.728;9.256;2024-03-23T02:14:59;2.67;;;1.25;;
12177;SDS011;6152;48.728;9.256;2024-03-23T02:17:25;1.80;;;1.23;;
12177;SDS011;6152;48.728;9.256;2024-03-23T02:19:52;2.08;;;1.50;;
12177;SDS011;6152;48.728;9.256;2024-03-23T02:22:18;1.30;;;1.20;;
12177;SDS011;6152;48.728;9.256;2024-03-23T02:24:44;1.27;;;1.13;;
12177;SDS011;6152;48.728;9.256;2024-03-23T02:27:11;2.67;;;1.30;;
12177;SDS011;6152;48.728;9.256;2024-03-23T02:29:37;2.40;;;1.40;;
12177;SDS011;6152;48.728;9.256;2024-03-23T02:32:03;2.00;;;1.40;;
12177;SDS011;6152;48.728;9.256;2024-03-23T02:34:29;1.50;;;1.15;;
12177;SDS011;6152;48.728;9.256;2024-03-23T02:36:55;3.63;;;1.33;;
12177;SDS011;6152;48.728;9.256;2024-03-23T02:39:22;1.20;;;1.10;;
12177;SDS011;6152;48.728;9.256;2024-03-23T02:41:48;2.78;;;1.30;;
12177;SDS011;6152;48.728;9.256;2024-03-23T02:44:14;1.40;;;1.30;;
12177;SDS011;6152;48.728;9.256;2024-03-23T02:46:40;1.33;;;1.23;;
12177;SDS011;6152;48.728;9.256;2024-03-23T02:49:07;2.92;;;1.38;;
12177;SDS011;6152;48.728;9.256;2024-03-23T02:51:33;3.47;;;1.40;;
12177;SDS011;6152;48.728;9.256;2024-03-23T02:53:59;1.80;;;1.30;;
12177;SDS011;6152;48.728;9.256;2024-03-23T02:56:25;2.13;;;1.40;;
12177;SDS011;6152;48.728;9.256;2024-03-23T02:58:52;1.63;;;1.30;;
12177;SDS011;6152;48.728;9.256;2024-03-23T03:01:18;1.52;;;1.42;;
12177;SDS011;6152;48.728;9.256;2024-03-23T03:03:44;2.85;;;1.30;;
12177;SDS011;6152;48.728;9.256;2024-03-23T03:06:10;1.40;;;1.30;;
12177;SDS011;6152;48.728;9.256;2024-03-23T03:08:36;3.72;;;1.55;;
12177;SDS011;6152;48.728;9.256;2024-03-23T03:11:02;2.17;;;1.17;;
12177;SDS011;6152;48.728;9.256;2024-03-23T03:13:28;2.63;;;1.70;;
12177;SDS011;6152;48.728;9.256;2024-03-23T03:15:54;2.72;;;1.45;;
12177;SDS011;6152;48.728;9.256;2024-03-23T03:18:20;1.73;;;1.30;;
12177;SDS011;6152;48.728;9.256;2024-03-23T03:20:46;1.38;;;1.27;;
12177;SDS011;6152;48.728;9.256;2024-03-23T03:23:13;1.40;;;1.15;;
12177;SDS011;6152;48.728;9.256;2024-03-23T03:25:39;1.88;;;1.30;;
12177;SDS011;6152;48.728;9.256;2024-03-23T03:28:05;1.50;;;1.35;;
12177;SDS011;6152;48.728;9.256;2024-03-23T03:30:31;2.10;;;1.23;;
12177;SDS011;6152;48.728;9.256;2024-03-23T03:32:57;2.55;;;1.60;;
12177;SDS011;6152;48.728;9.256;2024-03-23T03:35:23;2.10;;;1.35;;
12177;SDS011;6152;48.728;9.256;2024-03-23T03:37:49;2.90;;;1.30;;
12177;SDS011;6152;48.728;9.256;2024-03-23T03:40:15;2.90;;;1.30;;
12177;SDS011;6152;48.728;9.256;2024-03-23T03:42:41;1.40;;;1.30;;
12177;SDS011;6152;48.728;9.256;2024-03-23T03:45:08;2.08;;;1.67;;
12177;SDS011;6152;48.728;9.256;2024-03-23T03:47:34;1.67;;;1.38;;
12177;SDS011;6152;48.728;9.256;2024-03-23T03:50:00;3.55;;;1.35;;
12177;SDS011;6152;48.728;9.256;2024-03-23T03:52:26;1.40;;;1.30;;
12177;SDS011;6152;48.728;9.256;2024-03-23T03:54:55;1.30;;;1.20;;
12177;SDS011;6152;48.728;9.256;2024-03-23T03:57:26;2.08;;;1.52;;
12177;SDS011;6152;48.728;9.256;2024-03-23T03:59:52;2.85;;;1.50;;
12177;SDS011;6152;48.728;9.256;2024-03-23T04:02:18;1.50;;;1.38;;
12177;SDS011;6152;48.728;9.256;2024-03-23T04:04:44;1.27;;;1.20;;
12177;SDS011;6152;48.728;9.256;2024-03-23T04:07:10;1.60;;;1.23;;
12177;SDS011;6152;48.728;9.256;2024-03-23T04:09:36;1.63;;;1.33;;
12177;SDS011;6152;48.728;9.256;2024-03-23T04:12:02;2.92;;;1.48;;
12177;SDS011;6152;48.728;9.256;2024-03-23T04:14:28;2.85;;;1.60;;
12177;SDS011;6152;48.728;9.256;2024-03-23T04:16:54;1.25;;;1.02;;
12177;SDS011;6152;48.728;9.256;2024-03-23T04:19:21;1.70;;;1.60;;
12177;SDS011;6152;48.728;9.256;2024-03-23T04:21:47;3.33;;;1.40;;
12177;SDS011;6152;48.728;9.256;2024-03-23T04:24:13;1.35;;;1.25;;
12177;SDS011;6152;48.728;9.256;2024-03-23T04:26:41;2.75;;;1.50;;
12177;SDS011;6152;48.728;9.256;2024-03-23T04:29:07;3.05;;;1.20;;
12177;SDS011;6152;48.728;9.256;2024-03-23T04:31:33;1.55;;;1.20;;
12177;SDS011;6152;48.728;9.256;2024-03-23T04:34:02;1.30;;;1.20;;
12177;SDS011;6152;48.728;9.256;2024-03-23T04:36:29;2.88;;;1.40;;
12177;SDS011;6152;48.728;9.256;2024-03-23T04:38:59;1.40;;;1.02;;
12177;SDS011;6152;48.728;9.256;2024-03-23T04:41:25;2.58;;;1.50;;
12177;SDS011;6152;48.728;9.256;2024-03-23T04:43:52;2.28;;;1.80;;
12177;SDS011;6152;48.728;9.256;2024-03-23T04:46:18;3.58;;;1.80;;
12177;SDS011;6152;48.728;9.256;2024-03-23T04:48:45;2.22;;;1.38;;
12177;SDS011;6152;48.728;9.256;2024-03-23T04:51:20;2.03;;;1.35;;
12177;SDS011;6152;48.728;9.256;2024-03-23T04:53:46;2.53;;;1.55;;
12177;SDS011;6152;48.728;9.256;2024-03-23T04:56:13;1.55;;;1.45;;
12177;SDS011;6152;48.728;9.256;2024-03-23T04:58:40;1.88;;;1.63;;
12177;SDS011;6152;48.728;9.256;2024-03-23T05:01:06;2.75;;;1.65;;
12177;SDS011;6152;48.728;9.256;2024-03-23T05:03:32;1.73;;;1.52;;
12177;SDS011;6152;48.728;9.256;2024-03-23T05:05:58;2.40;;;2.20;;
12177;SDS011;6152;48.728;9.256;2024-03-23T05:08:25;2.45;;;2.17;;
12177;SDS011;6152;48.728;9.256;2024-03-23T05:10:51;4.80;;;3.22;;
12177;SDS011;6152;48.728;9.256;2024-03-23T05:13:17;4.57;;;3.40;;
12177;SDS011;6152;48.728;9.256;2024-03-23T05:15:43;8.30;;;5.32;;
12177;SDS011;6152;48.728;9.256;2024-03-23T05:18:09;6.88;;;5.13;;
12177;SDS011;6152;48.728;9.256;2024-03-23T05:20:35;7.72;;;5.70;;
12177;SDS011;6152;48.728;9.256;2024-03-23T05:23:01;7.53;;;5.93;;
12177;SDS011;6152;48.728;9.256;2024-03-23T05:25:28;7.38;;;6.28;;
12177;SDS011;6152;48.728;9.256;2024-03-23T05:27:54;8.57;;;6.45;;
12177;SDS011;6152;48.728;9.256;2024-03-23T05:30:20;7.32;;;6.50;;
12177;SDS011;6152;48.728;9.256;2024-03-23T05:32:46;11.40;;;7.72;;
12177;SDS011;6152;48.728;9.256;2024-03-23T05:35:12;9.25;;;6.93;;
12177;SDS011;6152;48.728;9.256;2024-03-23T05:37:38;10.43;;;7.55;;
12177;SDS011;6152;48.728;9.256;2024-03-23T05:40:04;8.65;;;7.07;;
12177;SDS011;6152;48.728;9.256;2024-03-23T05:42:33;9.68;;;7.60;;
12177;SDS011;6152;48.728;9.256;2024-03-23T05:44:59;10.15;;;7.43;;
12177;SDS011;6152;48.728;9.256;2024-03-23T05:47:25;10.43;;;7.80;;
12177;SDS011;6152;48.728;9.256;2024-03-23T05:49:51;14.10;;;7.78;;
12177;SDS011;6152;48.728;9.256;2024-03-23T05:52:17;10.88;;;7.70;;
12177;SDS011;6152;48.728;9.256;2024-03-23T05:54:46;12.05;;;8.18;;
12177;SDS011;6152;48.728;9.256;2024-03-23T05:57:12;10.93;;;8.82;;
12177;SDS011;6152;48.728;9.256;2024-03-23T05:59:38;9.35;;;6.68;;
12177;SDS011;6152;48.728;9.256;2024-03-23T06:02:04;9.63;;;6.00;;
12177;SDS011;6152;48.728;9.256;2024-03-23T06:04:31;8.35;;;5.70;;
12177;SDS011;6152;48.728;9.256;2024-03-23T06:06:57;8.55;;;5.82;;
12177;SDS011;6152;48.728;9.256;2024-03-23T06:09:23;10.40;;;6.00;;
12177;SDS011;6152;48.728;9.256;2024-03-23T06:11:49;8.68;;;5.97;;
12177;SDS011;6152;48.728;9.256;2024-03-23T06:14:15;7.15;;;5.88;;
12177;SDS011;6152;48.728;9.256;2024-03-23T06:16:41;6.78;;;5.28;;
12177;SDS011;6152;48.728;9.256;2024-03-23T06:19:07;6.07;;;4.88;;
12177;SDS011;6152;48.728;9.256;2024-03-23T06:21:33;5.30;;;3.22;;
12177;SDS011;6152;48.728;9.256;2024-03-23T06:24:00;2.92;;;2.13;;
12177;SDS011;6152;48.728;9.256;2024-03-23T06:26:26;3.28;;;2.17;;
12177;SDS011;6152;48.728;9.256;2024-03-23T06:28:52;2.20;;;2.00;;
12177;SDS011;6152;48.728;9.256;2024-03-23T06:31:18;3.35;;;2.00;;
12177;SDS011;6152;48.728;9.256;2024-03-23T06:33:45;1.63;;;1.38;;
12177;SDS011;6152;48.728;9.256;2024-03-23T06:36:11;3.05;;;1.20;;
12177;SDS011;6152;48.728;9.256;2024-03-23T06:38:37;1.27;;;1.17;;
12177;SDS011;6152;48.728;9.256;2024-03-23T06:41:06;1.38;;;0.80;;
12177;SDS011;6152;48.728;9.256;2024-03-23T06:43:33;0.75;;;0.50;;
12177;SDS011;6152;48.728;9.256;2024-03-23T06:45:59;0.40;;;0.40;;
12177;SDS011;6152;48.728;9.256;2024-03-23T06:48:25;0.40;;;0.38;;
12177;SDS011;6152;48.728;9.256;2024-03-23T06:50:55;0.13;;;0.10;;
12177;SDS011;6152;48.728;9.256;2024-03-23T06:53:22;0.80;;;0.10;;
12177;SDS011;6152;48.728;9.256;2024-03-23T06:55:54;0.10;;;0.10;;
12177;SDS011;6152;48.728;9.256;2024-03-23T06:58:21;0.10;;;0.10;;
12177;SDS011;6152;48.728;9.256;2024-03-23T07:00:48;0.20;;;0.20;;
12177;SDS011;6152;48.728;9.256;2024-03-23T07:03:15;0.20;;;0.15;;
12177;SDS011;6152;48.728;9.256;2024-03-23T07:05:41;0.17;;;0.17;;
12177;SDS011;6152;48.728;9.256;2024-03-23T07:08:08;0.10;;;0.10;;
12177;SDS011;6152;48.728;9.256;2024-03-23T07:10:34;0.10;;;0.10;;
12177;SDS011;6152;48.728;9.256;2024-03-23T07:13:00;0.68;;;0.20;;
12177;SDS011;6152;48.728;9.256;2024-03-23T07:15:26;0.10;;;0.10;;
12177;SDS011;6152;48.728;9.256;2024-03-23T07:17:53;1.95;;;0.10;;
12177;SDS011;6152;48.728;9.256;2024-03-23T07:20:19;0.25;;;0.10;;
12177;SDS011;6152;48.728;9.256;2024-03-23T07:22:45;1.00;;;0.20;;
12177;SDS011;6152;48.728;9.256;2024-03-23T07:25:12;0.10;;;0.10;;
12177;SDS011;6152;48.728;9.256;2024-03-23T07:27:38;0.20;;;0.20;;
12177;SDS011;6152;48.728;9.256;2024-03-23T07:30:05;0.10;;;0.10;;
12177;SDS011;6152;48.728;9.256;2024-03-23T07:32:32;0.17;;;0.10;;
12177;SDS011;6152;48.728;9.256;2024-03-23T07:34:58;0.30;;;0.10;;
12177;SDS011;6152;48.728;9.256;2024-03-23T07:37:24;0.10;;;0.10;;
12177;SDS011;6152;48.728;9.256;2024-03-23T07:39:50;1.00;;;0.05;;
12177;SDS011;6152;48.728;9.256;2024-03-23T07:42:17;0.00;;;0.00;;
12177;SDS011;6152;48.728;9.256;2024-03-23T07:44:43;0.10;;;0.10;;
12177;SDS011;6152;48.728;9.256;2024-03-23T07:47:09;0.00;;;0.00;;
12177;SDS011;6152;48.728;9.256;2024-03-23T07:49:35;0.20;;;0.10;;
12177;SDS011;6152;48.728;9.256;2024-03-23T07:52:01;0.08;;;0.03;;
12177;SDS011;6152;48.728;9.256;2024-03-23T07:54:27;0.10;;;0.10;;
12177;SDS011;6152;48.728;9.256;2024-03-23T07:56:53;0.30;;;0.30;;
12177;SDS011;6152;48.728;9.256;2024-03-23T07:59:19;0.05;;;0.05;;
12177;SDS011;6152;48.728;9.256;2024-03-23T08:01:45;0.20;;;0.10;;
12177;SDS011;6152;48.728;9.256;2024-03-23T08:04:12;0.13;;;0.10;;
12177;SDS011;6152;48.728;9.256;2024-03-23T08:06:38;0.10;;;0.10;;
12177;SDS011;6152;48.728;9.256;2024-03-23T08:09:04;0.10;;;0.10;;
12177;SDS011;6152;48.728;9.256;2024-03-23T08:11:31;0.00;;;0.00;;
12177;SDS011;6152;48.728;9.256;2024-03-23T08:13:59;0.10;;;0.10;;
12177;SDS011;6152;48.728;9.256;2024-03-23T08:16:26;0.10;;;0.10;;
12177;SDS011;6152;48.728;9.256;2024-03-23T08:18:53;0.90;;;0.10;;
12177;SDS011;6152;48.728;9.256;2024-03-23T08:21:21;0.10;;;0.10;;
12177;SDS011;6152;48.728;9.256;2024-03-23T08:23:47;0.10;;;0.10;;
12177;SDS011;6152;48.728;9.256;2024-03-23T08:26:15;0.38;;;0.10;;
12177;SDS011;6152;48.728;9.256;2024-03-23T08:28:42;0.10;;;0.10;;
12177;SDS011;6152;48.728;9.256;2024-03-23T08:31:09;0.20;;;0.10;;
12177;SDS011;6152;48.728;9.256;2024-03-23T08:33:37;0.45;;;0.10;;
12177;SDS011;6152;48.728;9.256;2024-03-23T08:36:07;0.10;;;0.10;;
12177;SDS011;6152;48.728;9.256;2024-03-23T08:38:34;0.20;;;0.20;;
12177;SDS011;6152;48.728;9.256;2024-03-23T08:41:01;1.38;;;0.20;;
12177;SDS011;6152;48.728;9.256;2024-03-23T08:43:33;0.20;;;0.20;;
12177;SDS011;6152;48.728;9.256;2024-03-23T08:46:13;0.30;;;0.30;;
12177;SDS011;6152;48.728;9.256;2024-03-23T08:48:41;0.32;;;0.32;;
12177;SDS011;6152;48.728;9.256;2024-03-23T08:51:14;0.73;;;0.30;;
12177;SDS011;6152;48.728;9.256;2024-03-23T08:53:41;1.00;;;0.45;;
12177;SDS011;6152;48.728;9.256;2024-03-23T08:56:08;1.05;;;0.50;;
12177;SDS011;6152;48.728;9.256;2024-03-23T08:58:36;0.60;;;0.30;;
12177;SDS011;6152;48.728;9.256;2024-03-23T09:01:10;0.30;;;0.30;;
12177;SDS011;6152;48.728;9.256;2024-03-23T09:03:38;0.40;;;0.40;;
12177;SDS011;6152;48.728;9.256;2024-03-23T09:06:07;0.82;;;0.40;;
12177;SDS011;6152;48.728;9.256;2024-03-23T09:08:38;0.93;;;0.50;;
12177;SDS011;6152;48.728;9.256;2024-03-23T09:11:09;0.32;;;0.32;;
12177;SDS011;6152;48.728;9.256;2024-03-23T09:13:37;0.43;;;0.30;;
12177;SDS011;6152;48.728;9.256;2024-03-23T09:16:04;1.50;;;0.60;;
12177;SDS011;6152;48.728;9.256;2024-03-23T09:18:31;1.95;;;0.70;;
12177;SDS011;6152;48.728;9.256;2024-03-23T09:21:00;1.95;;;0.70;;
12177;SDS011;6152;48.728;9.256;2024-03-23T09:23:26;1.58;;;0.77;;
12177;SDS011;6152;48.728;9.256;2024-03-23T09:25:53;0.70;;;0.70;;
12177;SDS011;6152;48.728;9.256;2024-03-23T09:28:19;2.35;;;0.80;;
12177;SDS011;6152;48.728;9.256;2024-03-23T09:30:45;2.20;;;1.00;;
12177;SDS011;6152;48.728;9.256;2024-03-23T09:33:12;1.45;;;1.15;;
12177;SDS011;6152;48.728;9.256;2024-03-23T09:35:39;3.58;;;1.27;;
12177;SDS011;6152;48.728;9.256;2024-03-23T09:38:05;2.53;;;1.23;;
12177;SDS011;6152;48.728;9.256;2024-03-23T09:40:43;2.58;;;1.40;;
12177;SDS011;6152;48.728;9.256;2024-03-23T09:43:09;2.60;;;1.60;;
12177;SDS011;6152;48.728;9.256;2024-03-23T09:45:38;3.97;;;1.80;;
12177;SDS011;6152;48.728;9.256;2024-03-23T09:48:06;4.10;;;1.65;;
12177;SDS011;6152;48.728;9.256;2024-03-23T09:50:36;5.20;;;1.50;;
12177;SDS011;6152;48.728;9.256;2024-03-23T09:53:09;2.50;;;1.20;;
12177;SDS011;6152;48.728;9.256;2024-03-23T09:55:37;3.08;;;1.30;;
12177;SDS011;6152;48.728;9.256;2024-03-23T09:58:04;1.92;;;1.40;;
12177;SDS011;6152;48.728;9.256;2024-03-23T10:00:31;3.28;;;1.38;;
12177;SDS011;6152;48.728;9.256;2024-03-23T10:02:58;3.22;;;1.42;;
12177;SDS011;6152;48.728;9.256;2024-03-23T10:05:28;3.30;;;1.63;;
12177;SDS011;6152;48.728;9.256;2024-03-23T10:10:43;3.03;;;1.67;;
12177;SDS011;6152;48.728;9.256;2024-03-23T10:13:10;5.07;;;2.30;;
12177;SDS011;6152;48.728;9.256;2024-03-23T10:15:48;4.82;;;1.52;;
12177;SDS011;6152;48.728;9.256;2024-03-23T10:18:25;3.70;;;1.50;;
12177;SDS011;6152;48.728;9.256;2024-03-23T10:23:33;4.25;;;1.80;;
12177;SDS011;6152;48.728;9.256;2024-03-23T10:26:19;2.70;;;1.48;;
12177;SDS011;6152;48.728;9.256;2024-03-23T10:28:53;4.72;;;1.58;;
12177;SDS011;6152;48.728;9.256;2024-03-23T10:31:23;3.67;;;1.50;;
12177;SDS011;6152;48.728;9.256;2024-03-23T10:33:49;4.13;;;1.40;;
12177;SDS011;6152;48.728;9.256;2024-03-23T10:36:15;5.18;;;1.50;;
12177;SDS011;6152;48.728;9.256;2024-03-23T10:38:43;2.90;;;1.85;;
12177;SDS011;6152;48.728;9.256;2024-03-23T10:41:10;4.65;;;1.70;;
12177;SDS011;6152;48.728;9.256;2024-03-23T10:43:36;4.00;;;1.75;;
12177;SDS011;6152;48.728;9.256;2024-03-23T10:46:04;2.58;;;1.50;;
12177;SDS011;6152;48.728;9.256;2024-03-23T10:48:33;2.25;;;1.45;;
12177;SDS011;6152;48.728;9.256;2024-03-23T10:51:00;3.97;;;1.88;;
12177;SDS011;6152;48.728;9.256;2024-03-23T10:53:27;5.95;;;1.88;;
12177;SDS011;6152;48.728;9.256;2024-03-23T10:55:54;6.93;;;2.30;;
12177;SDS011;6152;48.728;9.256;2024-03-23T10:58:35;7.43;;;2.10;;
12177;SDS011;6152;48.728;9.256;2024-03-23T11:01:07;5.20;;;1.95;;
12177;SDS011;6152;48.728;9.256;2024-03-23T11:03:37;3.17;;;1.75;;
12177;SDS011;6152;48.728;9.256;2024-03-23T11:06:05;3.20;;;1.80;;
12177;SDS011;6152;48.728;9.256;2024-03-23T11:08:36;1.55;;;1.15;;
12177;SDS011;6152;48.728;9.256;2024-03-23T11:13:49;3.58;;;1.00;;
12177;SDS011;6152;48.728;9.256;2024-03-23T11:16:17;3.13;;;1.00;;
12177;SDS011;6152;48.728;9.256;2024-03-23T11:18:48;2.72;;;1.08;;
12177;SDS011;6152;48.728;9.256;2024-03-23T11:24:19;2.20;;;1.10;;
12177;SDS011;6152;48.728;9.256;2024-03-23T11:26:47;2.75;;;0.88;;
12177;SDS011;6152;48.728;9.256;2024-03-23T11:29:14;1.50;;;1.08;;
12177;SDS011;6152;48.728;9.256;2024-03-23T11:31:47;2.10;;;0.80;;
12177;SDS011;6152;48.728;9.256;2024-03-23T11:34:15;1.33;;;0.75;;
12177;SDS011;6152;48.728;9.256;2024-03-23T11:36:42;2.83;;;0.88;;
12177;SDS011;6152;48.728;9.256;2024-03-23T11:39:26;2.05;;;1.15;;
12177;SDS011;6152;48.728;9.256;2024-03-23T11:41:53;1.20;;;0.70;;
12177;SDS011;6152;48.728;9.256;2024-03-23T11:44:21;1.10;;;0.88;;
12177;SDS011;6152;48.728;9.256;2024-03-23T11:46:49;2.78;;;0.82;;
12177;SDS011;6152;48.728;9.256;2024-03-23T11:51:49;2.55;;;0.98;;
12177;SDS011;6152;48.728;9.256;2024-03-23T11:54:16;2.20;;;0.70;;
12177;SDS011;6152;48.728;9.256;2024-03-23T11:59:39;1.83;;;0.80;;
12177;SDS011;6152;48.728;9.256;2024-03-23T12:02:12;1.88;;;0.68;;
12177;SDS011;6152;48.728;9.256;2024-03-23T12:04:40;0.82;;;0.63;;
12177;SDS011;6152;48.728;9.256;2024-03-23T12:07:13;4.95;;;0.75;;
12177;SDS011;6152;48.728;9.256;2024-03-23T12:09:47;1.83;;;0.90;;
12177;SDS011;6152;48.728;9.256;2024-03-23T12:12:39;1.77;;;0.80;;
12177;SDS011;6152;48.728;9.256;2024-03-23T12:15:06;1.92;;;0.60;;
12177;SDS011;6152;48.728;9.256;2024-03-23T12:17:33;3.10;;;0.68;;
12177;SDS011;6152;48.728;9.256;2024-03-23T12:20:00;3.33;;;0.63;;
12177;SDS011;6152;48.728;9.256;2024-03-23T12:22:26;0.85;;;0.52;;
12177;SDS011;6152;48.728;9.256;2024-03-23T12:24:54;1.48;;;0.65;;
12177;SDS011;6152;48.728;9.256;2024-03-23T12:27:20;1.23;;;0.65;;
12177;SDS011;6152;48.728;9.256;2024-03-23T12:29:48;3.88;;;0.70;;
12177;SDS011;6152;48.728;9.256;2024-03-23T12:32:14;3.20;;;0.90;;
12177;SDS011;6152;48.728;9.256;2024-03-23T12:34:41;2.25;;;0.50;;
12177;SDS011;6152;48.728;9.256;2024-03-23T12:37:07;4.38;;;0.70;;
12177;SDS011;6152;48.728;9.256;2024-03-23T12:39:34;2.58;;;0.88;;
12177;SDS011;6152;48.728;9.256;2024-03-23T12:42:00;2.83;;;1.17;;
12177;SDS011;6152;48.728;9.256;2024-03-23T12:44:30;5.30;;;1.10;;
12177;SDS011;6152;48.728;9.256;2024-03-23T12:46:56;3.58;;;1.13;;
12177;SDS011;6152;48.728;9.256;2024-03-23T12:49:22;7.13;;;1.20;;
12177;SDS011;6152;48.728;9.256;2024-03-23T12:51:55;1.75;;;0.80;;
12177;SDS011;6152;48.728;9.256;2024-03-23T12:54:22;3.40;;;1.40;;
12177;SDS011;6152;48.728;9.256;2024-03-23T12:56:48;5.13;;;1.20;;
12177;SDS011;6152;48.728;9.256;2024-03-23T12:59:14;4.43;;;1.02;;
12177;SDS011;6152;48.728;9.256;2024-03-23T13:01:41;4.07;;;0.98;;
12177;SDS011;6152;48.728;9.256;2024-03-23T13:04:08;3.58;;;1.02;;
12177;SDS011;6152;48.728;9.256;2024-03-23T13:06:34;3.75;;;1.20;;
12177;SDS011;6152;48.728;9.256;2024-03-23T13:09:01;4.50;;;1.20;;
12177;SDS011;6152;48.728;9.256;2024-03-23T13:11:28;4.22;;;1.02;;
12177;SDS011;6152;48.728;9.256;2024-03-23T13:13:57;3.22;;;1.13;;
12177;SDS011;6152;48.728;9.256;2024-03-23T13:16:23;3.50;;;1.20;;
12177;SDS011;6152;48.728;9.256;2024-03-23T13:18:49;4.45;;;1.90;;
12177;SDS011;6152;48.728;9.256;2024-03-23T13:21:16;6.40;;;2.00;;
12177;SDS011;6152;48.728;9.256;2024-03-23T13:23:42;4.90;;;1.58;;
12177;SDS011;6152;48.728;9.256;2024-03-23T13:26:13;7.47;;;1.75;;
12177;SDS011;6152;48.728;9.256;2024-03-23T13:28:39;3.97;;;1.42;;
12177;SDS011;6152;48.728;9.256;2024-03-23T13:31:06;3.97;;;1.17;;
12177;SDS011;6152;48.728;9.256;2024-03-23T13:33:33;3.40;;;1.10;;
12177;SDS011;6152;48.728;9.256;2024-03-23T13:35:59;1.00;;;0.65;;
12177;SDS011;6152;48.728;9.256;2024-03-23T13:38:26;4.03;;;0.60;;
12177;SDS011;6152;48.728;9.256;2024-03-23T13:40:53;4.78;;;0.60;;
12177;SDS011;6152;48.728;9.256;2024-03-23T13:43:24;1.40;;;0.30;;
12177;SDS011;6152;48.728;9.256;2024-03-23T13:45:58;2.20;;;0.38;;
12177;SDS011;6152;48.728;9.256;2024-03-23T13:48:25;1.00;;;0.35;;
12177;SDS011;6152;48.728;9.256;2024-03-23T13:53:25;1.20;;;0.68;;
12177;SDS011;6152;48.728;9.256;2024-03-23T13:55:51;0.32;;;0.17;;
12177;SDS011;6152;48.728;9.256;2024-03-23T13:58:17;0.95;;;0.17;;
12177;SDS011;6152;48.728;9.256;2024-03-23T14:00:44;1.50;;;0.20;;
12177;SDS011;6152;48.728;9.256;2024-03-23T14:03:10;0.40;;;0.13;;
12177;SDS011;6152;48.728;9.256;2024-03-23T14:05:37;2.17;;;0.30;;
12177;SDS011;6152;48.728;9.256;2024-03-23T14:08:07;1.60;;;0.32;;
12177;SDS011;6152;48.728;9.256;2024-03-23T14:10:34;2.67;;;0.50;;
12177;SDS011;6152;48.728;9.256;2024-03-23T14:13:04;1.35;;;0.38;;
12177;SDS011;6152;48.728;9.256;2024-03-23T14:15:31;0.80;;;0.40;;
12177;SDS011;6152;48.728;9.256;2024-03-23T14:17:57;2.03;;;0.73;;
12177;SDS011;6152;48.728;9.256;2024-03-23T14:20:24;2.75;;;0.77;;
12177;SDS011;6152;48.728;9.256;2024-03-23T14:22:53;2.67;;;0.50;;
12177;SDS011;6152;48.728;9.256;2024-03-23T14:25:19;1.45;;;0.50;;
12177;SDS011;6152;48.728;9.256;2024-03-23T14:27:46;1.83;;;0.40;;
12177;SDS011;6152;48.728;9.256;2024-03-23T14:30:13;2.38;;;0.38;;
12177;SDS011;6152;48.728;9.256;2024-03-23T14:32:40;0.63;;;0.22;;
12177;SDS011;6152;48.728;9.256;2024-03-23T14:35:06;1.80;;;0.20;;
12177;SDS011;6152;48.728;9.256;2024-03-23T14:37:36;1.10;;;0.20;;
12177;SDS011;6152;48.728;9.256;2024-03-23T14:40:07;2.17;;;0.30;;
12177;SDS011;6152;48.728;9.256;2024-03-23T14:42:33;0.90;;;0.17;;
12177;SDS011;6152;48.728;9.256;2024-03-23T14:44:59;2.75;;;0.28;;
12177;SDS011;6152;48.728;9.256;2024-03-23T14:47:25;1.50;;;0.30;;
12177;SDS011;6152;48.728;9.256;2024-03-23T14:49:52;0.20;;;0.20;;
12177;SDS011;6152;48.728;9.256;2024-03-23T14:52:18;1.50;;;0.40;;
12177;SDS011;6152;48.728;9.256;2024-03-23T14:54:44;2.58;;;0.30;;
12177;SDS011;6152;48.728;9.256;2024-03-23T14:57:11;0.57;;;0.25;;
12177;SDS011;6152;48.728;9.256;2024-03-23T14:59:38;2.45;;;0.30;;
12177;SDS011;6152;48.728;9.256;2024-03-23T15:02:06;0.40;;;0.30;;
12177;SDS011;6152;48.728;9.256;2024-03-23T15:04:35;0.90;;;0.30;;
12177;SDS011;6152;48.728;9.256;2024-03-23T15:07:01;3.25;;;0.50;;
12177;SDS011;6152;48.728;9.256;2024-03-23T15:09:28;6.28;;;0.50;;
12177;SDS011;6152;48.728;9.256;2024-03-23T15:11:54;0.77;;;0.30;;
12177;SDS011;6152;48.728;9.256;2024-03-23T15:14:20;1.25;;;0.20;;
12177;SDS011;6152;48.728;9.256;2024-03-23T15:16:48;1.83;;;0.40;;
12177;SDS011;6152;48.728;9.256;2024-03-23T15:19:15;2.97;;;0.90;;
12177;SDS011;6152;48.728;9.256;2024-03-23T15:21:42;3.55;;;0.40;;
12177;SDS011;6152;48.728;9.256;2024-03-23T15:24:09;1.08;;;0.40;;
12177;SDS011;6152;48.728;9.256;2024-03-23T15:26:36;1.73;;;0.47;;
12177;SDS011;6152;48.728;9.256;2024-03-23T15:29:02;1.92;;;0.40;;
12177;SDS011;6152;48.728;9.256;2024-03-23T15:31:35;1.85;;;0.40;;
12177;SDS011;6152;48.728;9.256;2024-03-23T15:34:02;0.50;;;0.20;;
12177;SDS011;6152;48.728;9.256;2024-03-23T15:36:29;1.65;;;0.30;;
12177;SDS011;6152;48.728;9.256;2024-03-23T15:38:55;0.85;;;0.50;;
12177;SDS011;6152;48.728;9.256;2024-03-23T15:41:22;1.83;;;0.35;;
12177;SDS011;6152;48.728;9.256;2024-03-23T15:43:49;0.63;;;0.35;;
12177;SDS011;6152;48.728;9.256;2024-03-23T15:46:16;0.88;;;0.32;;
12177;SDS011;6152;48.728;9.256;2024-03-23T15:48:44;1.60;;;0.30;;
12177;SDS011;6152;48.728;9.256;2024-03-23T15:51:12;1.02;;;0.35;;
12177;SDS011;6152;48.728;9.256;2024-03-23T15:53:39;1.45;;;0.40;;
12177;SDS011;6152;48.728;9.256;2024-03-23T15:56:05;0.52;;;0.30;;
12177;SDS011;6152;48.728;9.256;2024-03-23T15:58:32;0.70;;;0.20;;
12177;SDS011;6152;48.728;9.256;2024-03-23T16:01:03;1.23;;;0.30;;
12177;SDS011;6152;48.728;9.256;2024-03-23T16:03:31;2.55;;;0.22;;
12177;SDS011;6152;48.728;9.256;2024-03-23T16:06:04;0.55;;;0.40;;
12177;SDS011;6152;48.728;9.256;2024-03-23T16:08:32;1.23;;;0.38;;
12177;SDS011;6152;48.728;9.256;2024-03-23T16:11:02;2.00;;;0.50;;
12177;SDS011;6152;48.728;9.256;2024-03-23T16:13:29;1.65;;;0.40;;